Time;durP1;ratioP1;P1;durP2;ratioP2;P2;SDS_P1;SDS_P2;PMS_P1;PMS_P2;Temp;Humidity;BMP_temperature;BMP_pressure;BME280_temperature;BME280_humidity;BME280_pressure;Samples;Min_cycle;Max_cycle;Signal;HPM_P1;HPM_P2
2022/04/20 03:33:32;;;;;;;;;;;;;;;6.86;100.00;99268.47;6350932;22;19968;-94
2022/04/20 03:45:51;;;;;;;;;;;;;;;;;;;;;
2022/04/20 04:07:43;;;;;;;;;;;;;;;;;;;;;
2022/04/20 04:10:41;;;;;;;;;;;;;;;;;;;;;
2022/04/20 04:35:33;;;;;;;;;;;;;;;4.79;97.82;99296.84;5857536;24;19916;-93
2022/04/20 04:38:32;;;;;;;;;;;;;;;;;;;;;
2022/04/20 04:44:36;;;;;;;;;;;;;;;;;;;;;
2022/04/20 07:44:37;;;;;;;;;;;;;;;3.43;84.95;99335.00;6363242;22;19929;-88
2022/04/20 07:47:03;;;;;;;;;;;;;;;3.41;84.70;99336.78;6342696;22;19946;-87
2022/04/20 07:52:12;;;;;;;;;;;;;;;3.41;84.41;99336.78;6370750;22;19963;-87
2022/04/20 07:54:37;;;;;;;;;;;;;;;3.43;84.79;99339.34;6342574;22;19910;-87
2022/04/20 07:57:02;;;;;;;;;;;;;;;4.46;83.46;99330.91;6341236;22;19910;-72
2022/04/20 07:59:28;;;;;;;;;;;;;;;4.67;80.62;99321.63;6370523;22;19989;-83
2022/04/20 08:01:53;;;;;;;;;;;;;;;4.13;81.94;99329.09;6370359;22;20340;-86
2022/04/20 08:04:18;;;;;;;;;;;;;;;4.02;82.61;99327.59;6370968;22;19910;-83
2022/04/20 08:06:43;;;;;;;;;;;;;;;4.06;82.67;99327.50;6342648;22;20382;-83
2022/04/20 08:09:09;;;;;;;;;;;;;;;4.02;82.73;99320.63;6370608;22;19917;-83
2022/04/20 08:11:34;;;;;;;;;;;;;;;5.02;81.30;99320.66;6342595;22;20322;-71
2022/04/20 08:14:11;;;;;;;;;;;;;;;5.66;78.67;99324.13;6368831;22;19918;-70
2022/04/20 08:16:36;;;;;;;;;;;;;;;4.83;80.17;99324.69;6370718;22;19984;-88
2022/04/20 08:19:02;;;;;;;;;;;;;;;4.28;82.97;99329.63;6370543;22;20283;-87
2022/04/20 08:21:27;;;;;;;;;;;;;;;4.11;84.29;99328.25;6370364;22;19922;-87
2022/04/20 08:23:52;;;;;;;;;;;;;;;3.99;85.47;99323.31;6342509;22;19907;-87
2022/04/20 08:26:18;;;;;;;;;;;;;;;3.98;85.77;99326.81;6370390;22;19971;-87
2022/04/20 08:28:43;;;;;;;;;;;;;;;3.97;85.79;99327.69;6368440;22;19906;-87
2022/04/20 08:31:08;;;;;;;;;;;;;;;3.84;85.72;99328.91;6370169;22;19966;-87
2022/04/20 08:33:33;;;;;;;;;;;;;;;3.85;85.68;99336.72;6370213;22;20222;-88
2022/04/20 08:35:59;;;;;;;;;;;;;;;3.81;85.24;99325.44;6370269;22;19910;-87
2022/04/20 08:38:24;;;;;;;;;;;;;;;3.80;85.45;99323.72;6370072;22;19963;-87
2022/04/20 08:40:52;;;;;;;;;;;;;;;3.73;85.84;99314.25;6370114;22;20001;-87
2022/04/20 08:43:19;;;;;;;;;;;;;;;3.80;85.56;99310.63;6368371;22;20249;-87
2022/04/20 08:45:46;;;;;;;;;;;;;;;3.68;85.26;99321.38;6370124;22;19910;-87
2022/04/20 08:48:11;;;;;;;;;;;;;;;3.62;85.56;99311.00;6370422;22;19945;-87
2022/04/20 08:50:37;;;;;;;;;;;;;;;3.61;85.95;99317.16;6369890;22;19976;-88
2022/04/20 08:53:02;;;;;;;;;;;;;;;3.71;86.27;99321.28;6342049;22;19925;-87
2022/04/20 08:55:28;;;;;;;;;;;;;;;4.17;86.09;99330.72;6370348;22;19982;-86
2022/04/20 08:57:54;;;;;;;;;;;;;;;5.95;83.26;99316.22;6369050;22;20347;-88
2022/04/20 09:00:24;;;;;;;;;;;;;;;6.90;78.39;99308.72;6369748;22;19910;-85
2022/04/20 09:02:52;;;;;;;;;;;;;;;5.80;77.79;99316.69;6369852;22;19910;-85
2022/04/20 09:05:18;;;;;;;;;;;;;;;4.99;80.75;99317.28;6342757;22;19994;-85
2022/04/20 09:07:43;;;;;;;;;;;;;;;4.77;82.19;99317.88;6369257;22;19945;-85
2022/04/20 09:10:09;;;;;;;;;;;;;;;4.62;83.32;99316.50;6370177;22;19917;-85
2022/04/20 09:12:39;;;;;;;;;;;;;;;4.60;84.15;99313.06;6368074;22;19921;-85
2022/04/20 09:15:05;;;;;;;;;;;;;;;4.51;84.77;99311.50;6369733;22;19914;-85
2022/04/20 09:17:32;;;;;;;;;;;;;;;4.47;84.93;99309.88;6369829;22;19956;-86
2022/04/20 09:19:58;;;;;;;;;;;;;;;4.56;85.04;99314.03;6370048;22;19979;-86
2022/04/20 09:22:29;;;;;;;;;;;;;;;4.56;84.86;99308.78;6370041;22;19914;-85
2022/04/20 09:24:57;;;;;;;;;;;;;;;4.51;84.57;99306.25;6369662;22;19996;-85
2022/04/20 09:27:22;;;;;;;;;;;;;;;4.47;84.32;99314.28;6367920;22;20405;-85
2022/04/20 09:29:51;;;;;;;;;;;;;;;4.36;84.25;99314.53;6369992;22;19975;-86
2022/04/20 09:32:29;;;;;;;;;;;;;;;4.39;84.74;99310.97;6369620;22;20254;-86
2022/04/20 09:34:57;;;;;;;;;;;;;;;4.35;84.55;99305.78;6370036;22;19948;-85
2022/04/20 09:37:22;;;;;;;;;;;;;;;4.33;84.56;99310.22;6341901;22;20357;-87
2022/04/20 09:39:48;;;;;;;;;;;;;;;4.31;84.75;99303.31;6341643;22;19921;-85
2022/04/20 09:42:14;;;;;;;;;;;;;;;4.35;84.67;99300.53;6368227;22;19910;-86
2022/04/20 09:44:51;;;;;;;;;;;;;;;4.31;84.84;99303.31;6369217;22;19989;-86
2022/04/20 09:50:04;;;;;;;;;;;;;;;4.40;84.48;99313.56;6369628;22;19929;-86
2022/04/20 09:52:43;;;;;;;;;;;;;;;4.42;84.07;99301.28;6369654;22;20313;-85
2022/04/20 09:55:11;;;;;;;;;;;;;;;4.45;83.87;99298.56;6369333;22;19978;-85
2022/04/20 09:57:39;;;;;;;;;;;;;;;4.39;83.91;99298.72;6368049;22;19989;-85
2022/04/20 10:00:11;;;;;;;;;;;;;;;4.35;83.85;99308.41;6369450;22;19911;-86
2022/04/20 10:02:37;;;;;;;;;;;;;;;4.32;83.75;99305.91;6369322;22;19914;-85
2022/04/20 10:05:02;;;;;;;;;;;;;;;4.30;84.07;99304.19;6369223;22;19994;-86
2022/04/20 10:07:28;;;;;;;;;;;;;;;4.33;83.86;99294.50;6369343;22;19911;-84
2022/04/20 10:09:53;;;;;;;;;;;;;;;4.32;84.01;99305.00;6369238;22;19914;-85
2022/04/20 10:12:18;;;;;;;;;;;;;;;4.31;84.35;99308.56;6368056;22;19917;-86
2022/04/20 10:17:34;;;;;;;;;;;;;;;4.37;84.11;99297.88;6369073;22;19918;-85
2022/04/20 10:20:00;;;;;;;;;;;;;;;4.38;83.79;99291.75;6369190;22;19910;-85
2022/04/20 10:22:27;;;;;;;;;;;;;;;4.40;84.01;99308.31;6369187;22;19910;-85
2022/04/20 10:24:55;;;;;;;;;;;;;;;4.37;83.89;99303.13;6369412;22;19921;-85
2022/04/20 10:27:47;;;;;;;;;;;;;;;4.37;83.85;99303.13;6367709;22;20279;-85
2022/04/20 10:30:16;;;;;;;;;;;;;;;4.34;83.58;99301.47;6332151;22;20357;-85
2022/04/20 10:32:52;;;;;;;;;;;;;;;4.36;83.63;99294.41;6369367;22;19994;-85
2022/04/20 10:35:18;;;;;;;;;;;;;;;4.33;83.56;99301.50;6369241;22;19910;-85
2022/04/20 10:38:03;;;;;;;;;;;;;;;4.28;83.81;99292.91;6369031;22;20349;-85
2022/04/20 10:40:28;;;;;;;;;;;;;;;4.34;84.24;99288.34;6368795;22;19966;-86
2022/04/20 10:43:12;;;;;;;;;;;;;;;4.32;84.13;99294.53;6339434;22;19989;-85
2022/04/20 10:45:37;;;;;;;;;;;;;;;4.30;84.06;99277.97;6369476;22;20323;-85
2022/04/20 10:48:03;;;;;;;;;;;;;;;4.31;84.11;99288.44;6369080;22;19946;-85
2022/04/20 10:50:48;;;;;;;;;;;;;;;4.31;84.21;99277.94;6369503;22;19944;-86
2022/04/20 10:53:21;;;;;;;;;;;;;;;4.32;84.15;99278.78;6323352;22;19910;-85
2022/04/20 10:55:47;;;;;;;;;;;;;;;4.34;83.99;99280.47;6369039;22;19918;-86
2022/04/20 10:58:18;;;;;;;;;;;;;;;4.35;84.22;99268.22;6367548;22;19921;-85
2022/04/20 11:00:44;;;;;;;;;;;;;;;4.40;83.89;99271.56;6369136;22;19938;-84
2022/04/20 11:03:11;;;;;;;;;;;;;;;4.43;83.86;99270.66;6369206;22;20337;-87
2022/04/20 11:05:49;;;;;;;;;;;;;;;4.49;83.63;99266.09;6341380;22;20176;-87
2022/04/20 11:08:15;;;;;;;;;;;;;;;4.49;83.06;99265.25;6369406;22;20003;-86
2022/04/20 11:10:41;;;;;;;;;;;;;;;4.48;82.78;99264.41;6369363;22;20325;-86
2022/04/20 11:19:05;;;;;;;;;;;;;;;4.32;82.33;99250.81;6368951;22;19922;-86
2022/04/20 11:21:30;;;;;;;;;;;;;;;4.38;82.84;99262.03;6341119;22;20329;-86
2022/04/20 11:23:57;;;;;;;;;;;;;;;4.46;83.02;99260.94;6369212;22;19914;-86
2022/04/20 11:26:27;;;;;;;;;;;;;;;4.45;82.68;99261.84;6369029;22;19918;-86
2022/04/20 11:28:54;;;;;;;;;;;;;;;4.34;82.62;99242.88;6367557;22;19950;-87
2022/04/20 11:31:19;;;;;;;;;;;;;;;4.33;82.95;99255.13;6343371;22;19955;-86
2022/04/20 11:33:44;;;;;;;;;;;;;;;4.49;83.28;99245.09;6342739;22;20314;-86
2022/04/20 11:36:11;;;;;;;;;;;;;;;4.57;82.32;99247.53;6370865;22;19917;-86
2022/04/20 11:38:41;;;;;;;;;;;;;;;4.59;81.88;99234.38;6369181;22;19914;-86
2022/04/20 11:41:06;;;;;;;;;;;;;;;4.59;81.60;99239.63;6371103;22;20229;-86
2022/04/20 11:43:31;;;;;;;;;;;;;;;4.52;81.14;99233.69;6369236;22;19921;-87
2022/04/20 11:45:57;;;;;;;;;;;;;;;4.58;80.90;99235.25;6370670;22;20296;-86
2022/04/20 11:48:23;;;;;;;;;;;;;;;4.50;81.05;99241.59;6342788;22;19918;-86
2022/04/20 11:51:02;;;;;;;;;;;;;;;4.49;81.40;99229.38;6342480;22;20218;-86
2022/04/20 11:53:38;;;;;;;;;;;;;;;4.47;80.92;99235.56;6370698;22;19914;-86
2022/04/20 11:56:10;;;;;;;;;;;;;;;4.38;81.26;99235.81;6344147;22;19968;-86
2022/04/20 11:58:37;;;;;;;;;;;;;;;4.61;81.08;99236.06;6341216;22;19959;-86
2022/04/20 12:01:03;;;;;;;;;;;;;;;4.52;80.39;99229.28;6370257;22;19918;-87
2022/04/20 12:03:32;;;;;;;;;;;;;;;4.53;80.16;99225.78;6370898;22;19917;-87
2022/04/20 12:06:03;;;;;;;;;;;;;;;4.65;79.84;99221.09;6370514;22;19917;-87
2022/04/20 12:08:30;;;;;;;;;;;;;;;4.39;79.54;99227.03;6370378;22;19910;-87
2022/04/20 12:10:55;;;;;;;;;;;;;;;4.39;80.33;99222.66;6370270;22;19998;-86
2022/04/20 12:13:28;;;;;;;;;;;;;;;4.38;80.67;99220.06;6368871;22;19945;-87
2022/04/20 12:16:08;;;;;;;;;;;;;;;4.42;80.77;99222.56;6342470;22;20321;-87
2022/04/20 12:18:40;;;;;;;;;;;;;;;4.51;79.89;99216.22;6370557;22;19910;-87
2022/04/20 12:21:07;;;;;;;;;;;;;;;4.42;80.19;99198.09;6370586;22;19996;-86
2022/04/20 12:23:33;;;;;;;;;;;;;;;4.34;80.15;99198.28;6368781;22;19918;-81
2022/04/20 12:26:01;;;;;;;;;;;;;;;4.45;80.19;99198.88;6370257;22;19970;-82
2022/04/20 12:28:35;;;;;;;;;;;;;;;4.41;80.07;99199.84;6368857;22;19994;-82
2022/04/20 12:31:02;;;;;;;;;;;;;;;4.50;79.81;99199.63;6370095;22;19910;-82
2022/04/20 12:33:28;;;;;;;;;;;;;;;4.42;79.36;99195.47;6370395;22;20230;-82
2022/04/20 12:36:09;;;;;;;;;;;;;;;4.39;79.40;99201.66;6370162;22;19936;-82
2022/04/20 12:38:41;;;;;;;;;;;;;;;4.39;79.39;99201.66;6370172;22;20322;-82
2022/04/20 12:41:06;;;;;;;;;;;;;;;4.33;79.28;99192.19;6369996;22;20330;-82
2022/04/20 12:43:32;;;;;;;;;;;;;;;4.35;78.94;99182.50;6368176;22;19946;-82
2022/04/20 12:46:13;;;;;;;;;;;;;;;4.36;79.22;99189.47;6370121;22;19914;-82
2022/04/20 12:48:42;;;;;;;;;;;;;;;4.24;79.07;99175.84;6370534;22;19971;-82
2022/04/20 12:51:19;;;;;;;;;;;;;;;4.46;80.65;99170.88;6369873;22;19914;-82
2022/04/20 12:53:44;;;;;;;;;;;;;;;4.52;81.52;99170.72;6370402;22;20299;-81
2022/04/20 13:04:21;;;;;;;;;;;;;;;5.11;91.38;99164.63;6369892;22;19962;-81
2022/04/20 13:06:47;;;;;;;;;;;;;;;5.38;93.89;99154.16;6370344;22;20304;-82
2022/04/20 13:09:12;;;;;;;;;;;;;;;5.54;96.91;99163.28;6369753;22;19922;-82
2022/04/20 13:11:38;;;;;;;;;;;;;;;5.66;99.43;99155.91;6370332;22;19910;-82
2022/04/20 13:14:03;;;;;;;;;;;;;;;5.81;100.00;99171.19;6368337;22;20314;-82
2022/04/20 13:16:28;;;;;;;;;;;;;;;5.91;100.00;99167.31;6369876;22;19985;-82
2022/04/20 13:18:54;;;;;;;;;;;;;;;5.98;100.00;99157.47;6369446;22;20311;-82
2022/04/20 13:21:20;;;;;;;;;;;;;;;6.05;100.00;99153.75;6369721;22;19911;-82
2022/04/20 13:23:45;;;;;;;;;;;;;;;6.11;100.00;99152.66;6369727;22;19910;-82
2022/04/20 13:28:55;;;;;;;;;;;;;;;6.22;100.00;99154.91;6368346;22;20003;-82
2022/04/20 13:31:21;;;;;;;;;;;;;;;6.25;100.00;99152.16;6341685;22;19937;-82
2022/04/20 13:33:46;;;;;;;;;;;;;;;6.29;100.00;99144.13;6341690;22;20314;-82
2022/04/20 13:36:13;;;;;;;;;;;;;;;6.32;100.00;99144.00;6369897;22;19918;-82
2022/04/20 13:38:38;;;;;;;;;;;;;;;6.36;100.00;99153.50;6369856;22;19910;-82
2022/04/20 13:41:03;;;;;;;;;;;;;;;6.43;100.00;99153.28;6369285;22;20378;-82
2022/04/20 13:43:28;;;;;;;;;;;;;;;6.44;100.00;99144.47;6367791;22;20347;-82
2022/04/20 13:45:54;;;;;;;;;;;;;;;6.47;100.00;99149.63;6369775;22;19910;-82
2022/04/20 13:48:19;;;;;;;;;;;;;;;6.51;100.00;99149.47;6341819;22;19914;-81
2022/04/20 13:50:45;;;;;;;;;;;;;;;6.56;100.00;99141.41;6369450;22;19948;-82
2022/04/20 13:53:11;;;;;;;;;;;;;;;6.60;100.00;99135.09;6369174;22;19914;-82
2022/04/20 13:55:36;;;;;;;;;;;;;;;6.62;100.00;99135.06;6369501;22;19963;-83
2022/04/20 13:58:01;;;;;;;;;;;;;;;6.64;100.00;99135.88;6367940;22;20027;-89
2022/04/20 14:00:28;;;;;;;;;;;;;;;6.69;100.00;99144.44;6369276;22;19917;-85
2022/04/20 14:02:53;;;;;;;;;;;;;;;6.68;100.00;99146.22;6369501;22;19914;-88
2022/04/20 14:05:19;;;;;;;;;;;;;;;6.71;100.00;99153.16;6369379;22;19917;-86
2022/04/20 14:07:44;;;;;;;;;;;;;;;6.73;100.00;99146.91;6369414;22;19949;-85
2022/04/20 14:10:10;;;;;;;;;;;;;;;6.77;100.00;99142.38;6368183;22;19910;-83
2022/04/20 14:12:36;;;;;;;;;;;;;;;6.81;100.00;99140.50;6367096;22;19914;-84
2022/04/20 14:15:01;;;;;;;;;;;;;;;6.83;100.00;99136.00;6366318;22;19938;-91
2022/04/20 14:17:27;;;;;;;;;;;;;;;6.86;100.00;99130.63;6339906;22;19992;-85
2022/04/20 14:19:52;;;;;;;;;;;;;;;6.89;100.00;99141.06;6366897;22;19925;-84
2022/04/20 14:22:17;;;;;;;;;;;;;;;6.91;100.00;99140.09;6341522;22;20001;-85
2022/04/20 14:24:43;;;;;;;;;;;;;;;6.94;100.00;99144.41;6341589;22;20314;-84
2022/04/20 14:32:38;;;;;;;;;;;;;;;5.73;100.00;99147.75;6369295;22;19937;-86
2022/04/20 14:35:04;;;;;;;;;;;;;;;5.45;98.75;99137.28;6369360;22;20338;-84
2022/04/20 14:37:30;;;;;;;;;;;;;;;5.38;97.65;99149.75;6341354;22;19921;-86
2022/04/20 14:39:57;;;;;;;;;;;;;;;5.31;96.38;99142.13;6340547;22;19914;-90
2022/04/20 14:42:22;;;;;;;;;;;;;;;5.25;95.67;99130.91;6339413;22;19914;-90
2022/04/20 14:44:48;;;;;;;;;;;;;;;5.22;95.10;99133.63;6341082;22;19919;-84
2022/04/20 14:47:13;;;;;;;;;;;;;;;5.19;94.19;99141.59;6341214;22;19918;-85
2022/04/20 14:49:39;;;;;;;;;;;;;;;5.19;93.55;99130.25;6369145;22;19993;-84
2022/04/20 14:52:09;;;;;;;;;;;;;;;5.09;93.00;99129.69;6368346;22;20305;-89
2022/04/20 14:54:41;;;;;;;;;;;;;;;5.04;92.49;99127.19;6369093;22;19910;-84
2022/04/20 14:57:07;;;;;;;;;;;;;;;5.14;91.71;99116.38;6367261;22;19911;-84
2022/04/20 14:59:32;;;;;;;;;;;;;;;4.93;91.13;99123.16;6365716;22;19921;-87
2022/04/20 15:01:59;;;;;;;;;;;;;;;4.91;91.17;99131.94;6369034;22;19914;-85
2022/04/20 15:04:24;;;;;;;;;;;;;;;5.05;90.39;99135.91;6341567;22;19981;-84
2022/04/20 15:06:53;;;;;;;;;;;;;;;4.89;89.90;99131.13;6371055;22;19941;-85
2022/04/20 15:09:19;;;;;;;;;;;;;;;4.83;89.89;99123.41;6370960;22;20345;-85
2022/04/20 15:11:48;;;;;;;;;;;;;;;4.87;89.49;99138.19;6370945;22;19989;-85
2022/04/20 15:14:13;;;;;;;;;;;;;;;4.89;88.66;99127.66;6369313;22;19914;-89
2022/04/20 15:16:38;;;;;;;;;;;;;;;5.00;88.12;99119.44;6371176;22;19922;-85
2022/04/20 15:19:04;;;;;;;;;;;;;;;4.90;87.19;99118.88;6370923;22;19918;-89
2022/04/20 15:21:29;;;;;;;;;;;;;;;4.82;86.43;99136.59;6343536;22;19921;-85
2022/04/20 15:23:55;;;;;;;;;;;;;;;4.73;86.30;99127.25;6344325;22;19910;-93
2022/04/20 15:26:20;;;;;;;;;;;;;;;4.69;86.53;99130.84;6371795;22;19914;-88
2022/04/20 15:28:45;;;;;;;;;;;;;;;4.73;86.19;99122.84;6342841;22;19944;-94
2022/04/20 15:31:14;;;;;;;;;;;;;;;4.69;86.27;99136.09;6344132;22;20271;-83
2022/04/20 15:33:39;;;;;;;;;;;;;;;4.66;85.81;99134.44;6370945;22;19996;-85
2022/04/20 15:36:04;;;;;;;;;;;;;;;4.80;85.28;99139.25;6342819;22;20018;-85
2022/04/20 15:38:30;;;;;;;;;;;;;;;4.73;84.88;99132.50;6342850;22;20333;-86
2022/04/20 15:40:55;;;;;;;;;;;;;;;4.70;84.83;99140.44;6370864;22;19989;-84
2022/04/20 15:46:16;;;;;;;;;;;;;;;4.64;84.55;99127.50;6370228;22;19985;-85
2022/04/20 15:48:41;;;;;;;;;;;;;;;4.55;84.52;99126.88;6370894;22;19968;-86
2022/04/20 15:51:07;;;;;;;;;;;;;;;4.55;84.64;99124.25;6370849;22;19910;-85
2022/04/20 15:53:33;;;;;;;;;;;;;;;4.56;84.67;99122.47;6370982;22;19918;-84
2022/04/20 16:04:17;;;;;;;;;;;;;;;4.59;84.16;99124.16;6242893;23;20339;-85
2022/04/20 16:06:43;;;;;;;;;;;;;;;4.73;83.97;99122.84;6349134;22;19921;-85
2022/04/20 16:09:08;;;;;;;;;;;;;;;4.59;83.69;99109.25;6342742;22;19910;-85
2022/04/20 16:11:33;;;;;;;;;;;;;;;4.58;83.69;99115.44;6370410;22;19920;-85
2022/04/20 16:13:59;;;;;;;;;;;;;;;4.53;83.75;99119.94;6368702;22;19910;-85
2022/04/20 16:16:24;;;;;;;;;;;;;;;4.60;83.69;99115.41;6369895;22;20227;-84
2022/04/20 16:18:49;;;;;;;;;;;;;;;4.48;83.67;99113.97;6370822;22;20288;-85
2022/04/20 16:21:17;;;;;;;;;;;;;;;4.51;83.30;99117.34;6370276;22;19918;-85
2022/04/20 16:23:42;;;;;;;;;;;;;;;4.48;83.21;99120.09;6370325;22;19914;-85
2022/04/20 16:26:08;;;;;;;;;;;;;;;4.48;83.14;99106.97;6370116;22;19917;-84
2022/04/20 16:28:33;;;;;;;;;;;;;;;4.43;83.17;99113.25;6368810;22;19921;-85
2022/04/20 16:30:58;;;;;;;;;;;;;;;4.42;83.28;99109.78;6342194;22;19910;-84
2022/04/20 16:33:24;;;;;;;;;;;;;;;4.40;83.57;99108.09;6370474;22;19914;-84
2022/04/20 16:35:51;;;;;;;;;;;;;;;4.38;84.08;99115.16;6370120;22;19918;-84
2022/04/20 16:38:16;;;;;;;;;;;;;;;4.45;84.00;99112.31;6341979;22;19922;-84
2022/04/20 16:40:42;;;;;;;;;;;;;;;4.42;83.93;99112.41;6342454;22;19946;-84
2022/04/20 16:43:17;;;;;;;;;;;;;;;4.47;83.63;99115.75;6368474;22;19917;-84
2022/04/20 16:45:54;;;;;;;;;;;;;;;;;;;;;
2022/04/20 16:48:20;;;;;;;;;;;;;;;4.41;83.76;99102.78;6370117;22;19997;-84
2022/04/20 16:50:45;;;;;;;;;;;;;;;4.38;83.64;99107.28;6370139;22;19956;-85
2022/04/20 16:53:10;;;;;;;;;;;;;;;4.29;84.37;99116.25;6370299;22;19916;-86
2022/04/20 16:55:36;;;;;;;;;;;;;;;4.31;84.63;99098.72;6370141;22;20227;-85
2022/04/20 16:58:02;;;;;;;;;;;;;;;4.25;84.75;99104.13;6368165;22;19911;-85
2022/04/20 17:00:29;;;;;;;;;;;;;;;4.24;85.01;99103.25;6369846;22;19914;-84
2022/04/20 17:02:55;;;;;;;;;;;;;;;4.31;84.93;99096.09;6342119;22;19910;-85
2022/04/20 17:05:20;;;;;;;;;;;;;;;4.32;84.60;99100.44;6369937;22;20306;-85
2022/04/20 17:07:45;;;;;;;;;;;;;;;4.29;84.43;99090.91;6370028;22;19910;-85
2022/04/20 17:10:10;;;;;;;;;;;;;;;4.35;84.17;99093.31;6370362;22;19988;-86
2022/04/20 17:12:36;;;;;;;;;;;;;;;4.29;84.10;99093.53;6367957;22;19955;-85
2022/04/20 17:15:05;;;;;;;;;;;;;;;4.29;83.83;99084.78;6369849;22;19910;-84
2022/04/20 17:17:30;;;;;;;;;;;;;;;4.28;83.73;99086.53;6370113;22;19906;-85
2022/04/20 17:19:56;;;;;;;;;;;;;;;4.30;83.66;99083.88;6369747;22;20382;-85
2022/04/20 17:27:49;;;;;;;;;;;;;;;4.28;83.63;99083.06;6365299;22;19921;-84
2022/04/20 17:30:14;;;;;;;;;;;;;;;4.21;83.57;99086.75;6369296;22;19981;-85
2022/04/20 17:32:40;;;;;;;;;;;;;;;4.13;83.66;99087.84;6367940;22;19914;-85
2022/04/20 17:37:51;;;;;;;;;;;;;;;4.17;83.86;99097.34;6368494;22;19963;-85
2022/04/20 17:40:16;;;;;;;;;;;;;;;5.25;81.73;99083.63;6367386;22;19989;-79
2022/04/20 17:42:42;;;;;;;;;;;;;;;5.05;80.05;99084.25;6366445;22;19960;-86
2022/04/20 17:45:07;;;;;;;;;;;;;;;4.73;81.13;99096.59;6368947;22;20421;-84
2022/04/20 17:47:32;;;;;;;;;;;;;;;4.60;81.92;99091.78;6341059;22;19922;-86
2022/04/20 17:49:58;;;;;;;;;;;;;;;4.52;82.74;99098.09;6341068;22;19993;-86
2022/04/20 17:52:23;;;;;;;;;;;;;;;4.45;83.14;99095.69;6369131;22;19914;-86
2022/04/20 17:54:48;;;;;;;;;;;;;;;4.50;83.07;99093.78;6368641;22;19955;-86
2022/04/20 17:57:14;;;;;;;;;;;;;;;4.49;82.97;99103.44;6339999;22;19914;-86
2022/04/20 17:59:39;;;;;;;;;;;;;;;4.48;82.94;99098.22;6340691;22;19910;-86
2022/04/20 18:02:04;;;;;;;;;;;;;;;4.43;82.71;99100.97;6368866;22;20230;-85
2022/04/20 18:04:30;;;;;;;;;;;;;;;4.41;82.75;99094.94;6366622;22;19956;-85
2022/04/20 18:06:55;;;;;;;;;;;;;;;4.41;82.81;99091.44;6368628;22;19911;-86
2022/04/20 18:09:20;;;;;;;;;;;;;;;4.41;82.71;99089.69;6341399;22;19910;-86
2022/04/20 18:11:46;;;;;;;;;;;;;;;4.39;82.47;99099.38;6368698;22;19921;-86
2022/04/20 18:14:12;;;;;;;;;;;;;;;4.37;82.71;99098.53;6312752;22;20275;-86
2022/04/20 18:16:37;;;;;;;;;;;;;;;4.36;82.82;99102.06;6339628;22;19910;-86
2022/04/20 18:19:03;;;;;;;;;;;;;;;4.33;83.10;99103.00;6368106;22;20241;-85
2022/04/20 18:21:29;;;;;;;;;;;;;;;4.34;83.23;99098.59;6367286;22;19910;-85
2022/04/20 18:23:54;;;;;;;;;;;;;;;4.36;83.00;99102.06;6368151;22;20274;-85
2022/04/20 18:26:20;;;;;;;;;;;;;;;4.31;83.20;99106.59;6340831;22;19914;-85
2022/04/20 18:28:45;;;;;;;;;;;;;;;4.34;83.29;99103.84;6366113;22;19975;-86
2022/04/20 18:31:10;;;;;;;;;;;;;;;4.31;83.10;99106.59;6367836;22;19917;-85
2022/04/20 18:33:36;;;;;;;;;;;;;;;4.31;83.19;99109.22;6338809;22;19980;-85
2022/04/20 18:36:01;;;;;;;;;;;;;;;4.28;83.05;99111.94;6337466;22;19910;-85
2022/04/20 18:38:27;;;;;;;;;;;;;;;4.32;82.92;99111.81;6367869;22;19914;-86
2022/04/20 18:40:52;;;;;;;;;;;;;;;4.31;82.84;99098.72;6342377;22;20002;-86
2022/04/20 18:43:19;;;;;;;;;;;;;;;4.31;82.65;99109.22;6368178;22;19945;-85
2022/04/20 18:45:45;;;;;;;;;;;;;;;4.32;82.50;99109.19;6369574;22;20349;-86
2022/04/20 18:48:10;;;;;;;;;;;;;;;4.34;82.32;99106.47;6369360;22;20322;-86
2022/04/20 18:50:36;;;;;;;;;;;;;;;4.35;82.24;99109.06;6340633;22;19910;-86
2022/04/20 18:58:31;;;;;;;;;;;;;;;4.35;82.04;99116.06;6367700;22;19917;-85
2022/04/20 19:00:56;;;;;;;;;;;;;;;4.32;81.76;99122.28;6369538;22;19914;-86
2022/04/20 19:03:21;;;;;;;;;;;;;;;4.39;81.78;99122.09;6369205;22;20195;-86
2022/04/20 19:05:47;;;;;;;;;;;;;;;4.30;82.00;99125.84;6369331;22;19914;-85
2022/04/20 19:08:12;;;;;;;;;;;;;;;4.33;82.06;99123.13;6368831;22;19914;-86
2022/04/20 19:10:38;;;;;;;;;;;;;;;4.30;82.10;99123.22;6368904;22;20321;-86
2022/04/20 19:13:04;;;;;;;;;;;;;;;4.30;82.25;99131.09;6368264;22;19933;-85
2022/04/20 19:15:31;;;;;;;;;;;;;;;4.30;82.02;99129.31;6368953;22;20349;-86
2022/04/20 19:17:57;;;;;;;;;;;;;;;4.30;82.22;99123.22;6369701;22;19997;-86
2022/04/20 19:20:22;;;;;;;;;;;;;;;4.33;81.86;99128.38;6369773;22;20389;-86
2022/04/20 19:22:47;;;;;;;;;;;;;;;4.28;81.57;99128.50;6369990;22;19918;-86
2022/04/20 19:25:13;;;;;;;;;;;;;;;4.31;81.69;99125.81;6341967;22;19946;-85
2022/04/20 19:27:39;;;;;;;;;;;;;;;4.29;81.75;99132.88;6367786;22;19914;-86
2022/04/20 19:30:05;;;;;;;;;;;;;;;4.31;81.84;99143.31;6341960;22;19966;-86
2022/04/20 19:32:30;;;;;;;;;;;;;;;4.34;81.79;99140.56;6369182;22;19910;-85
2022/04/20 19:34:58;;;;;;;;;;;;;;;4.29;81.52;99142.47;6369405;22;20031;-85
2022/04/20 19:37:24;;;;;;;;;;;;;;;4.27;81.68;99146.91;6341792;22;20303;-85
2022/04/20 19:39:49;;;;;;;;;;;;;;;4.29;81.65;99140.72;6367951;22;19922;-85
2022/04/20 19:42:16;;;;;;;;;;;;;;;4.27;81.59;99136.41;6341055;22;20369;-85
2022/04/20 19:44:43;;;;;;;;;;;;;;;4.27;81.46;99134.66;6368013;22;19920;-86
2022/04/20 19:47:09;;;;;;;;;;;;;;;4.29;81.39;99126.75;6368962;22;19975;-85
2022/04/20 19:49:35;;;;;;;;;;;;;;;4.27;81.47;99133.78;6368699;22;19911;-85
2022/04/20 19:52:00;;;;;;;;;;;;;;;4.28;81.30;99131.13;6341288;22;19914;-85
2022/04/20 19:54:27;;;;;;;;;;;;;;;4.27;81.21;99129.41;6368390;22;19995;-85
2022/04/20 19:56:54;;;;;;;;;;;;;;;4.21;81.19;99129.56;6369259;22;19915;-86
2022/04/20 19:59:19;;;;;;;;;;;;;;;4.24;81.26;99128.63;6367841;22;19921;-86
2022/04/20 20:01:45;;;;;;;;;;;;;;;4.23;81.40;99132.16;6341163;22;19997;-85
2022/04/20 20:04:10;;;;;;;;;;;;;;;4.24;81.35;99123.38;6341478;22;19989;-86
2022/04/20 20:06:36;;;;;;;;;;;;;;;4.23;81.29;99125.16;6341435;22;19933;-87
2022/04/20 20:09:02;;;;;;;;;;;;;;;4.23;81.33;99121.66;6369390;22;19911;-84
2022/04/20 20:11:27;;;;;;;;;;;;;;;4.21;81.14;99124.31;6369681;22;20233;-84
2022/04/20 20:13:54;;;;;;;;;;;;;;;4.22;81.31;99127.81;6367775;22;20051;-85
2022/04/20 20:16:20;;;;;;;;;;;;;;;4.19;81.31;99126.13;6369180;22;20359;-84
2022/04/20 20:18:46;;;;;;;;;;;;;;;4.22;81.50;99123.44;6341401;22;19997;-86
2022/04/20 20:21:11;;;;;;;;;;;;;;;4.22;81.35;99120.81;6367839;22;19961;-85
2022/04/20 20:31:55;;;;;;;;;;;;;;;4.18;81.29;99120.03;6369251;22;19913;-86
2022/04/20 20:34:21;;;;;;;;;;;;;;;4.18;81.42;99125.28;6342246;22;19993;-86
2022/04/20 20:36:46;;;;;;;;;;;;;;;4.22;81.49;99130.44;6369014;22;19961;-85
2022/04/20 20:39:11;;;;;;;;;;;;;;;4.18;81.27;99125.28;6369186;22;19913;-88
2022/04/20 20:41:37;;;;;;;;;;;;;;;4.19;81.43;99132.22;6369147;22;20314;-86
2022/04/20 20:44:02;;;;;;;;;;;;;;;4.15;81.46;99130.63;6367255;22;19928;-86
2022/04/20 20:46:28;;;;;;;;;;;;;;;4.06;81.85;99132.63;6341272;22;19911;-85
2022/04/20 20:51:37;;;;;;;;;;;;;;;4.03;82.21;99125.69;6368701;22;20010;-85
2022/04/20 20:54:02;;;;;;;;;;;;;;;4.05;82.21;99121.25;6369251;22;19914;-86
2022/04/20 20:56:27;;;;;;;;;;;;;;;4.06;82.22;99125.59;6341154;22;19957;-86
2022/04/20 20:58:53;;;;;;;;;;;;;;;4.09;81.86;99117.66;6367174;22;19918;-85
2022/04/20 21:01:18;;;;;;;;;;;;;;;4.03;82.00;99120.44;6368764;22;19997;-85
2022/04/20 21:03:44;;;;;;;;;;;;;;;4.07;81.69;99116.84;6341031;22;19915;-86
2022/04/20 21:06:09;;;;;;;;;;;;;;;4.11;81.55;99118.47;6368613;22;19910;-85
2022/04/20 21:08:35;;;;;;;;;;;;;;;4.07;81.26;99116.84;6368791;22;19967;-86
2022/04/20 21:11:01;;;;;;;;;;;;;;;4.10;81.18;99122.00;6340879;22;19918;-87
2022/04/20 21:13:27;;;;;;;;;;;;;;;4.12;81.06;99119.34;6365893;22;19921;-86
2022/04/20 21:15:53;;;;;;;;;;;;;;;4.11;81.11;99120.25;6340883;22;19957;-86
2022/04/20 21:18:18;;;;;;;;;;;;;;;4.09;81.12;99116.81;6341134;22;20017;-85
2022/04/20 21:20:43;;;;;;;;;;;;;;;4.13;80.88;99118.44;6340574;22;19945;-84
2022/04/20 21:23:09;;;;;;;;;;;;;;;4.10;80.81;99108.91;6368978;22;19914;-85
2022/04/20 21:25:37;;;;;;;;;;;;;;;4.12;80.74;99109.72;6368743;22;20258;-84
2022/04/20 21:28:03;;;;;;;;;;;;;;;4.12;80.64;99107.09;6366895;22;19946;-84
2022/04/20 21:30:28;;;;;;;;;;;;;;;4.14;80.54;99107.91;6367455;22;19918;-85
2022/04/20 21:32:54;;;;;;;;;;;;;;;4.18;80.39;99114.78;6339403;22;19910;-85